sensor_id;sensor_type;location;lat;lon;timestamp;pressure;altitude;pressure_sealevel;temperature;humidity
45350;BME280;31086;51.702;-1.106;2022-09-03T00:01:35;100109.08;;;20.59;61.26
45350;BME280;31086;51.702;-1.106;2022-09-03T00:04:09;100108.41;;;20.66;61.11
45350;BME280;31086;51.702;-1.106;2022-09-03T00:06:42;100112.76;;;20.59;61.09
45350;BME280;31086;51.702;-1.106;2022-09-03T00:09:14;100110.48;;;20.72;60.75
45350;BME280;31086;51.702;-1.106;2022-09-03T00:11:49;100115.34;;;20.66;61.26
45350;BME280;31086;51.702;-1.106;2022-09-03T00:14:22;100117.31;;;20.38;60.95
45350;BME280;31086;51.702;-1.106;2022-09-03T00:16:53;100117.65;;;19.67;62.05
45350;BME280;31086;51.702;-1.106;2022-09-03T00:19:24;100113.51;;;19.83;62.41
45350;BME280;31086;51.702;-1.106;2022-09-03T00:21:55;100113.64;;;19.72;62.14
45350;BME280;31086;51.702;-1.106;2022-09-03T00:24:27;100114.40;;;19.97;61.69
45350;BME280;31086;51.702;-1.106;2022-09-03T00:27:00;100113.49;;;20.44;61.38
45350;BME280;31086;51.702;-1.106;2022-09-03T00:29:35;100110.51;;;19.65;62.20
45350;BME280;31086;51.702;-1.106;2022-09-03T00:32:09;100108.28;;;19.60;62.23
45350;BME280;31086;51.702;-1.106;2022-09-03T00:34:42;100107.98;;;19.25;62.94
45350;BME280;31086;51.702;-1.106;2022-09-03T00:37:11;100104.53;;;19.58;62.90
45350;BME280;31086;51.702;-1.106;2022-09-03T00:39:39;100105.68;;;19.70;62.74
45350;BME280;31086;51.702;-1.106;2022-09-03T00:42:19;100110.48;;;19.56;62.63
45350;BME280;31086;51.702;-1.106;2022-09-03T00:45:04;100114.24;;;20.10;62.14
45350;BME280;31086;51.702;-1.106;2022-09-03T00:47:40;100118.04;;;20.16;61.60
45350;BME280;31086;51.702;-1.106;2022-09-03T00:50:16;100113.35;;;19.79;63.08
45350;BME280;31086;51.702;-1.106;2022-09-03T00:52:53;100108.11;;;20.05;61.73
45350;BME280;31086;51.702;-1.106;2022-09-03T00:55:34;100109.54;;;20.44;61.56
45350;BME280;31086;51.702;-1.106;2022-09-03T00:58:16;100107.93;;;20.08;62.58
45350;BME280;31086;51.702;-1.106;2022-09-03T01:00:46;100107.25;;;19.71;62.27
45350;BME280;31086;51.702;-1.106;2022-09-03T01:03:20;100106.67;;;20.18;62.42
45350;BME280;31086;51.702;-1.106;2022-09-03T01:06:00;100098.40;;;19.72;62.24
45350;BME280;31086;51.702;-1.106;2022-09-03T01:08:52;100094.70;;;19.49;62.58
45350;BME280;31086;51.702;-1.106;2022-09-03T01:11:32;100095.54;;;19.29;62.78
45350;BME280;31086;51.702;-1.106;2022-09-03T01:14:11;100091.59;;;19.63;62.59
45350;BME280;31086;51.702;-1.106;2022-09-03T01:16:47;100091.92;;;19.64;62.36
45350;BME280;31086;51.702;-1.106;2022-09-03T01:19:31;100090.04;;;19.59;62.20
45350;BME280;31086;51.702;-1.106;2022-09-03T01:22:29;100086.11;;;19.16;62.90
45350;BME280;31086;51.702;-1.106;2022-09-03T01:25:11;100087.11;;;19.08;63.34
45350;BME280;31086;51.702;-1.106;2022-09-03T01:27:45;100089.85;;;19.08;63.23
45350;BME280;31086;51.702;-1.106;2022-09-03T01:30:18;100087.77;;;19.03;62.67
45350;BME280;31086;51.702;-1.106;2022-09-03T01:32:51;100090.46;;;19.56;62.70
45350;BME280;31086;51.702;-1.106;2022-09-03T01:35:29;100094.50;;;19.78;62.25
45350;BME280;31086;51.702;-1.106;2022-09-03T01:38:11;100092.09;;;19.67;62.37
45350;BME280;31086;51.702;-1.106;2022-09-03T01:40:50;100089.87;;;19.52;62.65
45350;BME280;31086;51.702;-1.106;2022-09-03T01:43:33;100093.86;;;19.05;63.25
45350;BME280;31086;51.702;-1.106;2022-09-03T01:46:08;100092.34;;;19.00;63.28
45350;BME280;31086;51.702;-1.106;2022-09-03T01:48:42;100093.77;;;18.67;63.72
45350;BME280;31086;51.702;-1.106;2022-09-03T01:51:17;100084.89;;;18.72;63.04
45350;BME280;31086;51.702;-1.106;2022-09-03T01:54:08;100080.70;;;18.16;64.15
45350;BME280;31086;51.702;-1.106;2022-09-03T01:56:56;100079.96;;;17.88;65.16
45350;BME280;31086;51.702;-1.106;2022-09-03T01:59:31;100076.47;;;18.05;64.88
45350;BME280;31086;51.702;-1.106;2022-09-03T02:02:02;100079.06;;;17.76;64.85
45350;BME280;31086;51.702;-1.106;2022-09-03T02:04:31;100079.98;;;18.32;64.42
45350;BME280;31086;51.702;-1.106;2022-09-03T02:06:59;100080.71;;;18.39;63.98
45350;BME280;31086;51.702;-1.106;2022-09-03T02:09:28;100076.99;;;18.44;63.67
45350;BME280;31086;51.702;-1.106;2022-09-03T02:11:58;100074.58;;;18.71;63.28
45350;BME280;31086;51.702;-1.106;2022-09-03T02:14:29;100074.50;;;18.50;62.90
45350;BME280;31086;51.702;-1.106;2022-09-03T02:16:58;100068.29;;;18.57;63.16
45350;BME280;31086;51.702;-1.106;2022-09-03T02:19:27;100063.45;;;18.32;63.28
45350;BME280;31086;51.702;-1.106;2022-09-03T02:21:56;100066.61;;;18.30;63.96
45350;BME280;31086;51.702;-1.106;2022-09-03T02:24:25;100063.37;;;18.12;64.11
45350;BME280;31086;51.702;-1.106;2022-09-03T02:26:53;100069.33;;;17.95;64.23
45350;BME280;31086;51.702;-1.106;2022-09-03T02:29:21;100068.93;;;17.54;64.43
45350;BME280;31086;51.702;-1.106;2022-09-03T02:31:49;100062.41;;;17.96;64.09
45350;BME280;31086;51.702;-1.106;2022-09-03T02:34:16;100065.49;;;18.12;63.79
45350;BME280;31086;51.702;-1.106;2022-09-03T02:36:46;100066.94;;;17.97;64.16
45350;BME280;31086;51.702;-1.106;2022-09-03T02:39:14;100061.94;;;18.04;64.02
45350;BME280;31086;51.702;-1.106;2022-09-03T02:41:42;100060.46;;;18.02;63.66
45350;BME280;31086;51.702;-1.106;2022-09-03T02:44:12;100061.19;;;18.16;63.75
45350;BME280;31086;51.702;-1.106;2022-09-03T02:46:43;100055.95;;;17.89;64.40
45350;BME280;31086;51.702;-1.106;2022-09-03T02:49:13;100051.62;;;17.90;64.34
45350;BME280;31086;51.702;-1.106;2022-09-03T02:51:42;100050.02;;;17.87;64.01
45350;BME280;31086;51.702;-1.106;2022-09-03T02:54:11;100060.00;;;18.06;63.70
45350;BME280;31086;51.702;-1.106;2022-09-03T02:56:38;100063.45;;;17.94;64.10
45350;BME280;31086;51.702;-1.106;2022-09-03T02:59:08;100063.00;;;17.62;64.08
45350;BME280;31086;51.702;-1.106;2022-09-03T03:01:35;100059.16;;;18.04;63.86
45350;BME280;31086;51.702;-1.106;2022-09-03T03:04:02;100061.05;;;17.80;64.33
45350;BME280;31086;51.702;-1.106;2022-09-03T03:06:30;100059.40;;;17.98;64.14
45350;BME280;31086;51.702;-1.106;2022-09-03T03:08:57;100059.85;;;17.97;64.31
45350;BME280;31086;51.702;-1.106;2022-09-03T03:11:25;100059.64;;;18.02;63.92
45350;BME280;31086;51.702;-1.106;2022-09-03T03:13:52;100060.53;;;17.74;63.70
45350;BME280;31086;51.702;-1.106;2022-09-03T03:16:20;100063.74;;;18.02;63.69
45350;BME280;31086;51.702;-1.106;2022-09-03T03:18:47;100062.26;;;18.05;63.60
45350;BME280;31086;51.702;-1.106;2022-09-03T03:21:16;100060.93;;;17.95;63.55
45350;BME280;31086;51.702;-1.106;2022-09-03T03:23:44;100064.17;;;17.83;63.85
45350;BME280;31086;51.702;-1.106;2022-09-03T03:26:13;100067.47;;;18.03;63.71
45350;BME280;31086;51.702;-1.106;2022-09-03T03:28:41;100066.96;;;17.80;64.00
45350;BME280;31086;51.702;-1.106;2022-09-03T03:31:09;100068.64;;;18.13;63.37
45350;BME280;31086;51.702;-1.106;2022-09-03T03:33:38;100073.58;;;18.24;63.32
45350;BME280;31086;51.702;-1.106;2022-09-03T03:36:08;100077.94;;;18.07;64.18
45350;BME280;31086;51.702;-1.106;2022-09-03T03:38:36;100072.62;;;18.62;63.03
45350;BME280;31086;51.702;-1.106;2022-09-03T03:41:07;100071.10;;;17.96;63.30
45350;BME280;31086;51.702;-1.106;2022-09-03T03:43:35;100066.92;;;18.03;63.10
45350;BME280;31086;51.702;-1.106;2022-09-03T03:46:03;100067.39;;;17.83;63.14
45350;BME280;31086;51.702;-1.106;2022-09-03T03:48:30;100071.61;;;17.73;63.47
45350;BME280;31086;51.702;-1.106;2022-09-03T03:51:00;100074.74;;;18.16;63.12
45350;BME280;31086;51.702;-1.106;2022-09-03T03:53:28;100075.53;;;17.98;63.74
45350;BME280;31086;51.702;-1.106;2022-09-03T03:55:56;100072.91;;;17.91;63.71
45350;BME280;31086;51.702;-1.106;2022-09-03T03:58:23;100064.36;;;17.77;64.12
45350;BME280;31086;51.702;-1.106;2022-09-03T04:00:51;100067.45;;;17.47;64.42
45350;BME280;31086;51.702;-1.106;2022-09-03T04:03:19;100065.84;;;17.54;65.16
45350;BME280;31086;51.702;-1.106;2022-09-03T04:05:54;100063.40;;;17.13;65.22
45350;BME280;31086;51.702;-1.106;2022-09-03T04:08:22;100061.67;;;17.35;65.15
45350;BME280;31086;51.702;-1.106;2022-09-03T04:10:49;100057.75;;;17.57;64.96
45350;BME280;31086;51.702;-1.106;2022-09-03T04:13:16;100056.70;;;17.90;64.26
45350;BME280;31086;51.702;-1.106;2022-09-03T04:15:43;100059.31;;;18.26;63.36
45350;BME280;31086;51.702;-1.106;2022-09-03T04:18:10;100061.06;;;17.09;65.15
45350;BME280;31086;51.702;-1.106;2022-09-03T04:20:38;100061.04;;;17.89;64.26
45350;BME280;31086;51.702;-1.106;2022-09-03T04:23:05;100052.36;;;17.52;64.52
45350;BME280;31086;51.702;-1.106;2022-09-03T04:25:33;100047.92;;;17.28;64.83
45350;BME280;31086;51.702;-1.106;2022-09-03T04:28:00;100047.97;;;17.18;64.91
45350;BME280;31086;51.702;-1.106;2022-09-03T04:30:27;100055.42;;;16.82;65.30
45350;BME280;31086;51.702;-1.106;2022-09-03T04:32:54;100060.60;;;17.04;64.64
45350;BME280;31086;51.702;-1.106;2022-09-03T04:35:22;100060.17;;;16.77;65.17
45350;BME280;31086;51.702;-1.106;2022-09-03T04:37:49;100060.43;;;17.22;65.45
45350;BME280;31086;51.702;-1.106;2022-09-03T04:40:17;100059.27;;;17.31;65.06
45350;BME280;31086;51.702;-1.106;2022-09-03T04:42:44;100056.32;;;17.44;64.82
45350;BME280;31086;51.702;-1.106;2022-09-03T04:45:11;100054.15;;;17.61;64.65
45350;BME280;31086;51.702;-1.106;2022-09-03T04:47:38;100057.77;;;17.63;64.31
45350;BME280;31086;51.702;-1.106;2022-09-03T04:50:06;100057.38;;;17.52;65.70
45350;BME280;31086;51.702;-1.106;2022-09-03T04:52:34;100054.30;;;17.85;64.25
45350;BME280;31086;51.702;-1.106;2022-09-03T04:55:01;100054.49;;;17.18;65.40
45350;BME280;31086;51.702;-1.106;2022-09-03T04:57:28;100055.95;;;17.09;65.28
45350;BME280;31086;51.702;-1.106;2022-09-03T04:59:55;100052.68;;;17.48;65.13
45350;BME280;31086;51.702;-1.106;2022-09-03T05:02:22;100049.79;;;17.51;65.24
45350;BME280;31086;51.702;-1.106;2022-09-03T05:04:48;100044.10;;;16.98;65.29
45350;BME280;31086;51.702;-1.106;2022-09-03T05:07:15;100041.63;;;17.01;64.95
45350;BME280;31086;51.702;-1.106;2022-09-03T05:09:43;100045.03;;;16.74;65.09
45350;BME280;31086;51.702;-1.106;2022-09-03T05:12:10;100042.99;;;16.60;64.68
45350;BME280;31086;51.702;-1.106;2022-09-03T05:14:37;100039.69;;;16.49;64.85
45350;BME280;31086;51.702;-1.106;2022-09-03T05:17:05;100040.84;;;16.47;65.19
45350;BME280;31086;51.702;-1.106;2022-09-03T05:19:32;100042.25;;;16.71;64.83
45350;BME280;31086;51.702;-1.106;2022-09-03T05:22:00;100044.36;;;16.61;65.21
45350;BME280;31086;51.702;-1.106;2022-09-03T05:24:27;100044.63;;;16.79;65.04
45350;BME280;31086;51.702;-1.106;2022-09-03T05:26:54;100048.19;;;16.90;64.55
45350;BME280;31086;51.702;-1.106;2022-09-03T05:29:21;100047.56;;;16.92;64.72
45350;BME280;31086;51.702;-1.106;2022-09-03T05:31:48;100046.35;;;17.16;64.76
45350;BME280;31086;51.702;-1.106;2022-09-03T05:34:16;100047.36;;;17.14;65.42
45350;BME280;31086;51.702;-1.106;2022-09-03T05:36:43;100049.86;;;17.47;65.07
45350;BME280;31086;51.702;-1.106;2022-09-03T05:39:10;100051.12;;;17.34;64.70
45350;BME280;31086;51.702;-1.106;2022-09-03T05:41:37;100054.19;;;17.17;64.62
45350;BME280;31086;51.702;-1.106;2022-09-03T05:44:04;100055.61;;;17.26;64.91
45350;BME280;31086;51.702;-1.106;2022-09-03T05:46:33;100057.64;;;16.96;65.26
45350;BME280;31086;51.702;-1.106;2022-09-03T05:49:01;100058.10;;;16.89;65.31
45350;BME280;31086;51.702;-1.106;2022-09-03T05:51:29;100059.86;;;17.28;64.86
45350;BME280;31086;51.702;-1.106;2022-09-03T05:53:58;100057.16;;;17.15;65.14
45350;BME280;31086;51.702;-1.106;2022-09-03T05:56:27;100057.19;;;16.93;65.38
45350;BME280;31086;51.702;-1.106;2022-09-03T05:58:57;100059.07;;;16.86;64.86
45350;BME280;31086;51.702;-1.106;2022-09-03T06:01:26;100064.56;;;17.22;65.13
45350;BME280;31086;51.702;-1.106;2022-09-03T06:03:55;100064.52;;;17.19;65.33
45350;BME280;31086;51.702;-1.106;2022-09-03T06:06:23;100065.74;;;17.55;64.89
45350;BME280;31086;51.702;-1.106;2022-09-03T06:08:51;100066.52;;;17.46;64.91
45350;BME280;31086;51.702;-1.106;2022-09-03T06:11:18;100064.01;;;17.55;65.30
45350;BME280;31086;51.702;-1.106;2022-09-03T06:13:46;100061.66;;;17.24;65.44
45350;BME280;31086;51.702;-1.106;2022-09-03T06:16:14;100062.06;;;17.79;64.54
45350;BME280;31086;51.702;-1.106;2022-09-03T06:18:41;100062.59;;;17.74;64.65
45350;BME280;31086;51.702;-1.106;2022-09-03T06:21:08;100062.08;;;18.21;63.97
45350;BME280;31086;51.702;-1.106;2022-09-03T06:23:36;100062.71;;;18.19;64.62
45350;BME280;31086;51.702;-1.106;2022-09-03T06:26:05;100063.26;;;18.49;64.21
45350;BME280;31086;51.702;-1.106;2022-09-03T06:28:34;100066.32;;;17.94;64.77
45350;BME280;31086;51.702;-1.106;2022-09-03T06:31:03;100069.01;;;18.34;64.78
45350;BME280;31086;51.702;-1.106;2022-09-03T06:33:32;100068.86;;;18.47;64.48
45350;BME280;31086;51.702;-1.106;2022-09-03T06:36:02;100072.02;;;18.40;64.65
45350;BME280;31086;51.702;-1.106;2022-09-03T06:38:32;100068.02;;;18.02;64.96
45350;BME280;31086;51.702;-1.106;2022-09-03T06:41:01;100071.14;;;18.08;65.67
45350;BME280;31086;51.702;-1.106;2022-09-03T06:43:30;100072.88;;;18.03;66.04
45350;BME280;31086;51.702;-1.106;2022-09-03T06:45:58;100076.47;;;18.03;66.05
45350;BME280;31086;51.702;-1.106;2022-09-03T06:48:28;100079.74;;;18.56;65.19
45350;BME280;31086;51.702;-1.106;2022-09-03T06:50:59;100083.09;;;18.17;65.84
45350;BME280;31086;51.702;-1.106;2022-09-03T06:53:28;100083.94;;;18.47;66.08
45350;BME280;31086;51.702;-1.106;2022-09-03T06:55:56;100081.06;;;19.33;64.34
45350;BME280;31086;51.702;-1.106;2022-09-03T06:58:27;100081.28;;;19.01;64.63
45350;BME280;31086;51.702;-1.106;2022-09-03T07:01:00;100085.09;;;19.33;63.79
45350;BME280;31086;51.702;-1.106;2022-09-03T07:03:29;100085.79;;;19.27;64.13
45350;BME280;31086;51.702;-1.106;2022-09-03T07:06:00;100085.96;;;19.56;64.10
45350;BME280;31086;51.702;-1.106;2022-09-03T07:08:27;100082.03;;;19.79;63.20
45350;BME280;31086;51.702;-1.106;2022-09-03T07:10:55;100082.59;;;19.93;63.25
45350;BME280;31086;51.702;-1.106;2022-09-03T07:13:22;100086.89;;;20.12;62.95
45350;BME280;31086;51.702;-1.106;2022-09-03T07:15:58;100083.92;;;19.91;63.33
45350;BME280;31086;51.702;-1.106;2022-09-03T07:18:26;100085.41;;;20.41;62.78
45350;BME280;31086;51.702;-1.106;2022-09-03T07:20:57;100086.00;;;19.56;63.32
45350;BME280;31086;51.702;-1.106;2022-09-03T07:23:25;100094.73;;;19.49;64.19
45350;BME280;31086;51.702;-1.106;2022-09-03T07:25:54;100098.03;;;20.18;63.50
45350;BME280;31086;51.702;-1.106;2022-09-03T07:28:21;100097.21;;;20.25;63.42
45350;BME280;31086;51.702;-1.106;2022-09-03T07:30:49;100097.24;;;20.42;63.46
45350;BME280;31086;51.702;-1.106;2022-09-03T07:33:16;100098.74;;;20.54;63.31
45350;BME280;31086;51.702;-1.106;2022-09-03T07:35:44;100099.72;;;20.39;63.48
45350;BME280;31086;51.702;-1.106;2022-09-03T07:38:16;100100.62;;;20.23;63.92
45350;BME280;31086;51.702;-1.106;2022-09-03T07:40:44;100103.81;;;19.84;63.81
45350;BME280;31086;51.702;-1.106;2022-09-03T07:43:12;100105.21;;;20.15;64.56
45350;BME280;31086;51.702;-1.106;2022-09-03T07:45:38;100106.83;;;19.86;64.82
45350;BME280;31086;51.702;-1.106;2022-09-03T07:48:05;100113.32;;;19.22;65.77
45350;BME280;31086;51.702;-1.106;2022-09-03T07:50:32;100111.21;;;19.97;65.01
45350;BME280;31086;51.702;-1.106;2022-09-03T07:52:59;100119.18;;;19.16;65.67
45350;BME280;31086;51.702;-1.106;2022-09-03T07:55:26;100122.62;;;18.26;67.56
45350;BME280;31086;51.702;-1.106;2022-09-03T07:57:55;100121.31;;;18.87;66.13
45350;BME280;31086;51.702;-1.106;2022-09-03T08:00:23;100121.19;;;19.55;65.13
45350;BME280;31086;51.702;-1.106;2022-09-03T08:02:51;100124.00;;;19.88;64.70
45350;BME280;31086;51.702;-1.106;2022-09-03T08:05:18;100128.14;;;19.86;64.76
45350;BME280;31086;51.702;-1.106;2022-09-03T08:07:46;100124.64;;;19.64;64.20
45350;BME280;31086;51.702;-1.106;2022-09-03T08:10:14;100130.59;;;19.66;65.16
45350;BME280;31086;51.702;-1.106;2022-09-03T08:12:41;100130.88;;;20.17;64.46
45350;BME280;31086;51.702;-1.106;2022-09-03T08:15:08;100131.92;;;20.32;64.28
45350;BME280;31086;51.702;-1.106;2022-09-03T08:17:35;100130.96;;;20.04;64.56
45350;BME280;31086;51.702;-1.106;2022-09-03T08:20:03;100129.85;;;20.56;63.92
45350;BME280;31086;51.702;-1.106;2022-09-03T08:22:30;100133.12;;;21.04;62.81
45350;BME280;31086;51.702;-1.106;2022-09-03T08:24:57;100138.56;;;20.49;63.47
45350;BME280;31086;51.702;-1.106;2022-09-03T08:27:25;100143.51;;;20.32;63.78
45350;BME280;31086;51.702;-1.106;2022-09-03T08:29:52;100150.02;;;19.21;65.21
45350;BME280;31086;51.702;-1.106;2022-09-03T08:32:19;100146.81;;;19.38;66.51
45350;BME280;31086;51.702;-1.106;2022-09-03T08:34:46;100141.84;;;19.75;65.29
45350;BME280;31086;51.702;-1.106;2022-09-03T08:37:13;100145.08;;;19.38;66.05
45350;BME280;31086;51.702;-1.106;2022-09-03T08:39:41;100151.56;;;18.58;68.33
45350;BME280;31086;51.702;-1.106;2022-09-03T08:42:18;100147.06;;;18.40;68.16
45350;BME280;31086;51.702;-1.106;2022-09-03T08:44:50;100150.39;;;19.35;67.24
45350;BME280;31086;51.702;-1.106;2022-09-03T08:47:22;100151.39;;;19.76;65.84
45350;BME280;31086;51.702;-1.106;2022-09-03T08:49:56;100146.34;;;20.03;65.17
45350;BME280;31086;51.702;-1.106;2022-09-03T08:52:28;100146.87;;;20.59;63.66
45350;BME280;31086;51.702;-1.106;2022-09-03T08:55:05;100150.33;;;19.94;65.34
45350;BME280;31086;51.702;-1.106;2022-09-03T08:57:43;100150.98;;;19.33;65.97
45350;BME280;31086;51.702;-1.106;2022-09-03T09:00:13;100154.65;;;19.30;65.70
45350;BME280;31086;51.702;-1.106;2022-09-03T09:02:52;100160.12;;;19.27;65.76
45350;BME280;31086;51.702;-1.106;2022-09-03T09:05:28;100158.44;;;19.68;65.80
45350;BME280;31086;51.702;-1.106;2022-09-03T09:08:05;100161.00;;;19.78;65.04
45350;BME280;31086;51.702;-1.106;2022-09-03T09:10:43;100158.43;;;19.60;63.90
45350;BME280;31086;51.702;-1.106;2022-09-03T09:13:19;100153.53;;;19.91;63.45
45350;BME280;31086;51.702;-1.106;2022-09-03T09:15:55;100151.18;;;20.44;62.25
45350;BME280;31086;51.702;-1.106;2022-09-03T09:18:33;100151.69;;;20.54;62.04
45350;BME280;31086;51.702;-1.106;2022-09-03T09:21:10;100155.61;;;20.66;61.50
45350;BME280;31086;51.702;-1.106;2022-09-03T09:23:41;100148.74;;;20.71;60.98
45350;BME280;31086;51.702;-1.106;2022-09-03T09:26:14;100149.02;;;20.37;61.10
45350;BME280;31086;51.702;-1.106;2022-09-03T09:28:44;100149.90;;;21.10;60.02
45350;BME280;31086;51.702;-1.106;2022-09-03T09:31:14;100152.32;;;20.30;61.14
45350;BME280;31086;51.702;-1.106;2022-09-03T09:33:41;100148.72;;;20.70;60.84
45350;BME280;31086;51.702;-1.106;2022-09-03T09:36:11;100150.48;;;20.79;60.10
45350;BME280;31086;51.702;-1.106;2022-09-03T09:38:39;100150.32;;;21.28;59.87
45350;BME280;31086;51.702;-1.106;2022-09-03T09:41:09;100147.94;;;21.47;59.69
45350;BME280;31086;51.702;-1.106;2022-09-03T09:43:37;100147.50;;;21.56;59.80
45350;BME280;31086;51.702;-1.106;2022-09-03T09:46:10;100150.67;;;22.06;58.45
45350;BME280;31086;51.702;-1.106;2022-09-03T09:48:45;100143.31;;;22.07;58.80
45350;BME280;31086;51.702;-1.106;2022-09-03T09:51:19;100143.28;;;22.83;57.53
45350;BME280;31086;51.702;-1.106;2022-09-03T09:53:47;100151.53;;;22.95;56.78
45350;BME280;31086;51.702;-1.106;2022-09-03T09:56:26;100150.14;;;22.48;56.91
45350;BME280;31086;51.702;-1.106;2022-09-03T09:59:02;100144.41;;;22.63;56.80
45350;BME280;31086;51.702;-1.106;2022-09-03T10:01:29;100148.03;;;22.50;56.54
45350;BME280;31086;51.702;-1.106;2022-09-03T10:03:58;100150.07;;;22.28;56.54
45350;BME280;31086;51.702;-1.106;2022-09-03T10:06:28;100148.79;;;22.57;56.93
45350;BME280;31086;51.702;-1.106;2022-09-03T10:09:05;100150.34;;;22.25;57.11
45350;BME280;31086;51.702;-1.106;2022-09-03T10:11:34;100149.57;;;21.77;58.22
45350;BME280;31086;51.702;-1.106;2022-09-03T10:14:03;100147.92;;;20.64;60.61
45350;BME280;31086;51.702;-1.106;2022-09-03T10:16:36;100147.13;;;21.74;58.51
45350;BME280;31086;51.702;-1.106;2022-09-03T10:19:10;100142.51;;;22.47;57.02
45350;BME280;31086;51.702;-1.106;2022-09-03T10:21:47;100145.76;;;22.28;57.20
45350;BME280;31086;51.702;-1.106;2022-09-03T10:24:29;100144.68;;;21.88;57.92
45350;BME280;31086;51.702;-1.106;2022-09-03T10:26:57;100142.64;;;22.38;57.45
45350;BME280;31086;51.702;-1.106;2022-09-03T10:29:26;100139.21;;;23.10;56.35
45350;BME280;31086;51.702;-1.106;2022-09-03T10:32:01;100145.45;;;22.29;56.48
45350;BME280;31086;51.702;-1.106;2022-09-03T10:34:36;100145.78;;;22.63;56.85
45350;BME280;31086;51.702;-1.106;2022-09-03T10:37:15;100145.06;;;22.73;56.36
45350;BME280;31086;51.702;-1.106;2022-09-03T10:39:55;100143.32;;;22.07;57.39
45350;BME280;31086;51.702;-1.106;2022-09-03T10:42:36;100141.53;;;20.93;59.66
45350;BME280;31086;51.702;-1.106;2022-09-03T10:45:16;100149.18;;;21.26;59.59
45350;BME280;31086;51.702;-1.106;2022-09-03T10:48:00;100142.36;;;21.37;59.62
45350;BME280;31086;51.702;-1.106;2022-09-03T10:50:36;100136.53;;;22.05;58.38
45350;BME280;31086;51.702;-1.106;2022-09-03T10:53:12;100135.58;;;22.53;57.27
45350;BME280;31086;51.702;-1.106;2022-09-03T10:55:51;100131.49;;;22.56;57.01
45350;BME280;31086;51.702;-1.106;2022-09-03T10:58:36;100136.58;;;22.33;57.64
45350;BME280;31086;51.702;-1.106;2022-09-03T11:01:11;100134.80;;;22.34;56.99
45350;BME280;31086;51.702;-1.106;2022-09-03T11:03:45;100137.60;;;22.09;58.03
45350;BME280;31086;51.702;-1.106;2022-09-03T11:06:20;100133.47;;;22.32;57.90
45350;BME280;31086;51.702;-1.106;2022-09-03T11:08:54;100134.61;;;22.39;57.74
45350;BME280;31086;51.702;-1.106;2022-09-03T11:11:26;100135.72;;;22.03;58.37
45350;BME280;31086;51.702;-1.106;2022-09-03T11:13:58;100135.54;;;22.16;57.85
45350;BME280;31086;51.702;-1.106;2022-09-03T11:16:31;100134.44;;;22.25;57.41
45350;BME280;31086;51.702;-1.106;2022-09-03T11:19:03;100136.58;;;22.47;56.85
45350;BME280;31086;51.702;-1.106;2022-09-03T11:21:32;100131.29;;;22.55;57.02
45350;BME280;31086;51.702;-1.106;2022-09-03T11:24:07;100129.14;;;22.66;56.16
45350;BME280;31086;51.702;-1.106;2022-09-03T11:26:36;100128.97;;;22.84;55.99
45350;BME280;31086;51.702;-1.106;2022-09-03T11:29:10;100134.02;;;22.43;56.77
45350;BME280;31086;51.702;-1.106;2022-09-03T11:31:49;100132.57;;;22.64;56.57
45350;BME280;31086;51.702;-1.106;2022-09-03T11:34:28;100129.02;;;22.89;56.34
45350;BME280;31086;51.702;-1.106;2022-09-03T11:37:29;100131.20;;;22.76;56.44
45350;BME280;31086;51.702;-1.106;2022-09-03T11:40:02;100136.81;;;22.37;56.55
45350;BME280;31086;51.702;-1.106;2022-09-03T11:42:34;100134.20;;;22.69;56.47
45350;BME280;31086;51.702;-1.106;2022-09-03T11:45:36;100130.66;;;22.65;56.53
45350;BME280;31086;51.702;-1.106;2022-09-03T11:48:17;100134.11;;;22.66;57.25
45350;BME280;31086;51.702;-1.106;2022-09-03T11:50:52;100130.41;;;22.22;58.02
45350;BME280;31086;51.702;-1.106;2022-09-03T11:53:25;100129.29;;;22.48;57.81
45350;BME280;31086;51.702;-1.106;2022-09-03T11:55:54;100125.95;;;22.63;57.10
45350;BME280;31086;51.702;-1.106;2022-09-03T11:58:25;100120.88;;;22.67;56.87
45350;BME280;31086;51.702;-1.106;2022-09-03T12:00:56;100121.52;;;23.17;56.73
45350;BME280;31086;51.702;-1.106;2022-09-03T12:03:27;100120.98;;;22.81;56.86
45350;BME280;31086;51.702;-1.106;2022-09-03T12:06:09;100122.28;;;23.66;56.80
45350;BME280;31086;51.702;-1.106;2022-09-03T12:08:54;100118.85;;;23.76;55.81
45350;BME280;31086;51.702;-1.106;2022-09-03T12:11:39;100118.14;;;23.95;55.65
45350;BME280;31086;51.702;-1.106;2022-09-03T12:14:18;100121.27;;;24.24;55.61
45350;BME280;31086;51.702;-1.106;2022-09-03T12:16:56;100119.51;;;24.96;54.43
45350;BME280;31086;51.702;-1.106;2022-09-03T12:19:34;100123.48;;;24.80;54.40
45350;BME280;31086;51.702;-1.106;2022-09-03T12:22:03;100131.85;;;24.31;54.91
45350;BME280;31086;51.702;-1.106;2022-09-03T12:24:31;100132.43;;;24.43;54.57
45350;BME280;31086;51.702;-1.106;2022-09-03T12:26:59;100135.50;;;24.32;54.77
45350;BME280;31086;51.702;-1.106;2022-09-03T12:29:28;100127.92;;;24.02;55.73
45350;BME280;31086;51.702;-1.106;2022-09-03T12:32:04;100129.68;;;24.30;55.46
45350;BME280;31086;51.702;-1.106;2022-09-03T12:34:31;100127.47;;;24.67;54.83
45350;BME280;31086;51.702;-1.106;2022-09-03T12:36:58;100129.65;;;24.66;54.85
45350;BME280;31086;51.702;-1.106;2022-09-03T12:39:26;100134.15;;;24.69;54.99
45350;BME280;31086;51.702;-1.106;2022-09-03T12:41:59;100132.47;;;24.87;54.53
45350;BME280;31086;51.702;-1.106;2022-09-03T12:44:30;100136.12;;;24.11;55.09
45350;BME280;31086;51.702;-1.106;2022-09-03T12:47:09;100141.22;;;24.52;55.03
45350;BME280;31086;51.702;-1.106;2022-09-03T12:49:38;100137.54;;;23.97;55.54
45350;BME280;31086;51.702;-1.106;2022-09-03T12:52:12;100134.17;;;24.54;55.40
45350;BME280;31086;51.702;-1.106;2022-09-03T12:54:47;100133.94;;;24.80;54.71
45350;BME280;31086;51.702;-1.106;2022-09-03T12:57:21;100140.12;;;24.31;54.92
45350;BME280;31086;51.702;-1.106;2022-09-03T12:59:52;100136.98;;;23.88;55.69
45350;BME280;31086;51.702;-1.106;2022-09-03T13:02:24;100141.74;;;24.11;55.13